createdAt,value
2023-01-09T00:02:22.532Z,101514.46
2023-01-09T00:04:50.698Z,101510.73
2023-01-09T00:07:19.581Z,101516.77
2023-01-09T00:09:46.606Z,101517.65
2023-01-09T00:12:13.871Z,101517.00
2023-01-09T00:14:41.649Z,101516.70
2023-01-09T00:17:12.789Z,101517.77
2023-01-09T00:19:39.950Z,101520.55
2023-01-09T00:22:10.245Z,101514.10
2023-01-09T00:24:37.402Z,101499.42
2023-01-09T00:27:04.881Z,101493.99
2023-01-09T00:29:32.170Z,101492.48
2023-01-09T00:31:59.241Z,101486.02
2023-01-09T00:34:26.735Z,101484.70
2023-01-09T00:36:55.860Z,101481.64
2023-01-09T00:39:25.114Z,101485.26
2023-01-09T00:41:53.847Z,101488.89
2023-01-09T00:44:28.019Z,101478.66
2023-01-09T00:46:57.788Z,101473.05
2023-01-09T00:49:25.053Z,101465.25
2023-01-09T00:51:54.395Z,101463.05
2023-01-09T00:54:24.579Z,101466.01
2023-01-09T00:56:52.544Z,101460.07
2023-01-09T00:59:19.616Z,101458.20
2023-01-09T01:01:47.019Z,101454.11
2023-01-09T01:04:32.956Z,101450.88
2023-01-09T01:07:18.625Z,101451.42
2023-01-09T01:09:47.860Z,101447.34
2023-01-09T01:12:15.023Z,101447.01
2023-01-09T01:14:43.010Z,101448.73
2023-01-09T01:17:10.594Z,101447.38
2023-01-09T01:19:37.573Z,101443.61
2023-01-09T01:22:05.330Z,101439.39
2023-01-09T01:24:32.279Z,101434.29
2023-01-09T01:26:59.372Z,101424.37
2023-01-09T01:29:27.133Z,101424.20
2023-01-09T01:31:54.141Z,101420.29
2023-01-09T01:34:21.016Z,101421.02
2023-01-09T01:36:48.173Z,101415.56
2023-01-09T01:39:16.515Z,101414.38
2023-01-09T01:41:43.479Z,101413.17
2023-01-09T01:44:48.296Z,101411.31
2023-01-09T01:47:15.262Z,101412.04
2023-01-09T01:49:42.281Z,101413.92
2023-01-09T01:52:10.383Z,101415.17
2023-01-09T01:54:37.403Z,101415.03
2023-01-09T01:57:04.954Z,101407.67
2023-01-09T01:59:42.887Z,101409.21
2023-01-09T02:02:09.867Z,101404.94
2023-01-09T02:04:39.412Z,101395.86
2023-01-09T02:07:08.799Z,101385.27
2023-01-09T02:09:36.729Z,101383.21
2023-01-09T02:12:24.276Z,101381.54
2023-01-09T02:15:01.292Z,101375.71
2023-01-09T02:17:53.053Z,101374.86
2023-01-09T02:20:38.008Z,101373.33
2023-01-09T02:23:26.195Z,101375.22
2023-01-09T02:25:56.428Z,101368.21
2023-01-09T02:28:42.456Z,101362.39
2023-01-09T02:31:24.803Z,101356.77
2023-01-09T02:34:17.290Z,101351.83
2023-01-09T02:36:49.565Z,101343.27
2023-01-09T02:39:27.474Z,101337.79
2023-01-09T02:42:02.576Z,101345.32
2023-01-09T02:44:34.574Z,101345.50
2023-01-09T02:47:07.255Z,101342.27
2023-01-09T02:49:35.728Z,101339.04
2023-01-09T02:52:02.541Z,101338.52
2023-01-09T02:54:49.710Z,101337.50
2023-01-09T02:57:22.141Z,101334.94
2023-01-09T02:59:49.652Z,101333.93
2023-01-09T03:02:34.754Z,101335.67
2023-01-09T03:05:08.444Z,101330.88
2023-01-09T03:07:45.729Z,101320.45
2023-01-09T03:10:18.195Z,101320.64
2023-01-09T03:12:45.068Z,101322.88
2023-01-09T03:15:13.211Z,101321.69
2023-01-09T03:17:42.743Z,101317.61
2023-01-09T03:20:10.553Z,101313.84
2023-01-09T03:22:54.968Z,101316.23
2023-01-09T03:25:22.240Z,101317.27
2023-01-09T03:27:50.815Z,101312.49
2023-01-09T03:30:18.277Z,101308.56
2023-01-09T03:32:45.226Z,101311.48
2023-01-09T03:35:12.240Z,101308.05
2023-01-09T03:37:39.214Z,101308.40
2023-01-09T03:40:07.028Z,101309.98
2023-01-09T03:42:33.870Z,101307.23
2023-01-09T03:45:01.093Z,101305.52
2023-01-09T03:47:28.232Z,101303.83
2023-01-09T03:49:55.266Z,101302.30
2023-01-09T03:52:22.188Z,101298.86
2023-01-09T03:54:49.126Z,101297.83
2023-01-09T03:57:16.088Z,101298.35
2023-01-09T03:59:43.063Z,101298.35
2023-01-09T04:02:10.427Z,101297.35
2023-01-09T04:04:37.461Z,101295.13
2023-01-09T04:07:04.753Z,101291.35
2023-01-09T04:09:31.620Z,101291.34
2023-01-09T04:11:58.840Z,101295.12
2023-01-09T04:14:25.911Z,101295.13
2023-01-09T04:16:52.888Z,101297.00
2023-01-09T04:19:19.920Z,101299.41
2023-01-09T04:21:47.006Z,101298.21
2023-01-09T04:24:13.930Z,101299.73
2023-01-09T04:26:40.949Z,101296.82
2023-01-09T04:29:07.817Z,101293.74
2023-01-09T04:31:34.879Z,101290.83
2023-01-09T04:34:01.848Z,101284.83
2023-01-09T04:36:28.848Z,101282.07
2023-01-09T04:38:55.856Z,101278.98
2023-01-09T04:41:41.303Z,101272.46
2023-01-09T04:44:08.540Z,101268.55
2023-01-09T04:46:35.428Z,101272.66
2023-01-09T04:49:02.405Z,101275.23
2023-01-09T04:51:29.542Z,101268.55
2023-01-09T04:53:57.887Z,101267.69
2023-01-09T04:56:25.025Z,101267.32
2023-01-09T04:58:52.283Z,101267.49
2023-01-09T05:01:20.021Z,101263.05
2023-01-09T05:03:47.085Z,101258.42
2023-01-09T05:06:14.100Z,101256.20
2023-01-09T05:08:41.143Z,101249.67
2023-01-09T05:11:08.366Z,101249.33
2023-01-09T05:13:35.223Z,101252.77
2023-01-09T05:16:02.934Z,101250.20
2023-01-09T05:18:29.872Z,101253.47
2023-01-09T05:20:56.928Z,101253.46
2023-01-09T05:23:24.201Z,101252.09
2023-01-09T05:25:51.115Z,101251.92
2023-01-09T05:28:18.182Z,101250.04
2023-01-09T05:30:45.138Z,101247.11
2023-01-09T05:33:12.539Z,101243.34
2023-01-09T05:35:39.989Z,101242.65
2023-01-09T05:38:07.150Z,101246.26
2023-01-09T05:40:40.016Z,101240.42
2023-01-09T05:43:07.964Z,101244.20
2023-01-09T05:45:35.689Z,101244.88
2023-01-09T05:48:02.996Z,101246.09
2023-01-09T05:50:30.219Z,101241.80
2023-01-09T05:52:57.329Z,101240.59
2023-01-09T05:55:24.542Z,101240.77
2023-01-09T05:57:51.666Z,101239.21
2023-01-09T06:00:19.253Z,101239.05
2023-01-09T06:02:46.216Z,101244.20
2023-01-09T06:05:13.278Z,101240.92
2023-01-09T06:07:42.536Z,101242.98
2023-01-09T06:10:15.789Z,101243.52
2023-01-09T06:12:48.554Z,101245.58
2023-01-09T06:15:16.655Z,101245.23
2023-01-09T06:17:43.857Z,101244.71
2023-01-09T06:20:11.184Z,101249.35
2023-01-09T06:22:38.778Z,101249.34
2023-01-09T06:25:08.420Z,101248.99
2023-01-09T06:27:36.010Z,101248.66
2023-01-09T06:30:03.681Z,101249.88
2023-01-09T06:32:30.750Z,101249.19
2023-01-09T06:34:57.736Z,101252.25
2023-01-09T06:37:25.069Z,101253.11
2023-01-09T06:39:54.173Z,101252.62
2023-01-09T06:42:22.075Z,101251.58
2023-01-09T06:44:48.918Z,101252.79
2023-01-09T06:47:16.119Z,101245.74
2023-01-09T06:49:43.522Z,101245.41
2023-01-09T06:52:11.301Z,101250.73
2023-01-09T06:54:38.763Z,101250.56
2023-01-09T06:57:07.488Z,101248.66
2023-01-09T06:59:35.864Z,101245.56
2023-01-09T07:02:03.057Z,101245.75
2023-01-09T07:04:30.120Z,101251.41
2023-01-09T07:06:57.019Z,101250.02
2023-01-09T07:09:23.933Z,101248.14
2023-01-09T07:11:50.865Z,101247.80
2023-01-09T07:14:17.722Z,101250.55
2023-01-09T07:16:44.512Z,101252.94
2023-01-09T07:19:11.369Z,101252.23
2023-01-09T07:21:38.228Z,101250.36
2023-01-09T07:24:05.460Z,101245.90
2023-01-09T07:26:32.363Z,101244.85
2023-01-09T07:28:59.298Z,101242.10
2023-01-09T07:31:26.187Z,101238.33
2023-01-09T07:33:53.121Z,101235.22
2023-01-09T07:36:20.016Z,101231.27
2023-01-09T07:38:47.041Z,101231.77
2023-01-09T07:41:13.979Z,101231.06
2023-01-09T07:43:40.849Z,101231.23
2023-01-09T07:46:07.955Z,101224.70
2023-01-09T07:48:35.376Z,101225.89
2023-01-09T07:51:02.266Z,101222.09
2023-01-09T07:53:29.184Z,101218.46
2023-01-09T07:55:57.343Z,101217.60
2023-01-09T07:58:24.265Z,101216.39
2023-01-09T08:00:51.881Z,101215.88
2023-01-09T08:03:18.877Z,101218.27
2023-01-09T08:05:46.394Z,101217.23
2023-01-09T08:08:14.995Z,101219.80
2023-01-09T08:10:42.448Z,101220.13
2023-01-09T08:13:10.239Z,101220.31
2023-01-09T08:15:37.432Z,101213.27
2023-01-09T08:18:04.750Z,101212.06
2023-01-09T08:20:36.531Z,101209.49
2023-01-09T08:23:08.730Z,101208.45
2023-01-09T08:25:36.186Z,101209.80
2023-01-09T08:28:03.166Z,101208.93
2023-01-09T08:30:30.182Z,101204.45
2023-01-09T08:32:57.441Z,101196.19
2023-01-09T08:35:25.462Z,101195.48
2023-01-09T08:37:53.534Z,101193.76
2023-01-09T08:40:20.524Z,101189.45
2023-01-09T08:43:06.012Z,101188.77
2023-01-09T08:45:51.831Z,101192.20
2023-01-09T08:48:20.397Z,101191.66
2023-01-09T08:50:47.464Z,101192.20
2023-01-09T08:53:15.607Z,101189.80
2023-01-09T08:55:43.622Z,101189.61
2023-01-09T08:58:12.980Z,101186.86
2023-01-09T09:00:40.495Z,101186.52
2023-01-09T09:03:12.646Z,101184.61
2023-01-09T09:05:41.879Z,101187.87
2023-01-09T09:08:08.949Z,101185.10
2023-01-09T09:10:36.563Z,101183.38
2023-01-09T09:13:04.546Z,101182.17
2023-01-09T09:15:35.317Z,101176.85
2023-01-09T09:18:04.011Z,101176.50
2023-01-09T09:20:32.687Z,101172.72
2023-01-09T09:22:59.676Z,101174.43
2023-01-09T09:25:26.688Z,101175.11
2023-01-09T09:27:59.218Z,101169.42
2023-01-09T09:30:27.364Z,101161.66
2023-01-09T09:32:56.005Z,101149.60
2023-01-09T09:35:26.445Z,101146.66
2023-01-09T09:37:57.544Z,101138.92
2023-01-09T09:40:46.682Z,101141.00
2023-01-09T09:44:11.256Z,101141.18
2023-01-09T09:46:46.481Z,101140.64
2023-01-09T09:49:32.366Z,101138.23
2023-01-09T09:52:14.639Z,101143.03
2023-01-09T09:54:48.428Z,101138.36
2023-01-09T09:57:23.417Z,101138.34
2023-01-09T09:59:54.505Z,101139.67
2023-01-09T10:02:33.247Z,101137.25
2023-01-09T10:05:10.519Z,101133.57
2023-01-09T10:07:44.401Z,101130.98
2023-01-09T10:10:25.371Z,101122.70
2023-01-09T10:12:56.485Z,101120.77
2023-01-09T10:15:30.442Z,101118.17
2023-01-09T10:18:25.424Z,101118.52
2023-01-09T10:21:31.401Z,101118.33
2023-01-09T10:24:15.408Z,101122.09
2023-01-09T10:26:49.513Z,101114.84
2023-01-09T10:29:37.980Z,101114.48
2023-01-09T10:33:02.879Z,101114.82
2023-01-09T10:35:56.913Z,101114.29
2023-01-09T10:38:30.456Z,101114.42
2023-01-09T10:41:18.437Z,101111.12
2023-01-09T10:43:54.447Z,101108.52
2023-01-09T10:46:27.030Z,101105.73
2023-01-09T10:56:28.023Z,101095.15
2023-01-09T10:58:55.361Z,101100.48
2023-01-09T11:01:32.792Z,101100.45
2023-01-09T11:04:01.978Z,101095.96
2023-01-09T11:06:43.947Z,101093.70
2023-01-09T11:09:10.923Z,101090.25
2023-01-09T11:11:41.296Z,101090.59
2023-01-09T11:14:27.910Z,101090.07
2023-01-09T11:16:56.495Z,101086.61
2023-01-09T11:19:24.407Z,101088.98
2023-01-09T11:22:16.335Z,101088.60
2023-01-09T11:24:43.851Z,101080.52
2023-01-09T11:27:13.870Z,101078.59
2023-01-09T11:29:43.723Z,101081.31
2023-01-09T11:32:24.241Z,101085.92
2023-01-09T11:34:51.174Z,101084.70
2023-01-09T11:37:26.328Z,101083.64
2023-01-09T11:39:53.250Z,101082.41
2023-01-09T11:42:46.173Z,101077.23
2023-01-09T11:45:20.288Z,101072.38
2023-01-09T11:47:47.135Z,101069.94
2023-01-09T11:50:25.011Z,101066.14
2023-01-09T11:53:24.818Z,101063.70
2023-01-09T11:56:01.275Z,101059.01
2023-01-09T11:58:35.024Z,101058.45
2023-01-09T12:01:39.532Z,101054.14
2023-01-09T12:04:31.887Z,101058.09
2023-01-09T12:07:21.994Z,101056.70
2023-01-09T12:09:55.158Z,101052.06
2023-01-09T12:12:22.116Z,101047.58
2023-01-09T12:15:14.059Z,101047.59
2023-01-09T12:18:04.238Z,101043.80
2023-01-09T12:20:50.135Z,101044.64
2023-01-09T12:23:42.068Z,101045.29
2023-01-09T12:26:21.088Z,101041.81
2023-01-09T12:29:34.504Z,101040.39
2023-01-09T12:32:09.913Z,101038.31
2023-01-09T12:34:40.395Z,101027.77
2023-01-09T12:37:38.098Z,101026.18
2023-01-09T12:40:22.003Z,101023.89
2023-01-09T12:43:08.172Z,101016.98
2023-01-09T12:45:58.428Z,101015.91
2023-01-09T12:49:03.836Z,101016.03
2023-01-09T12:51:55.442Z,101020.81
2023-01-09T12:54:54.858Z,101019.58
2023-01-09T12:57:42.313Z,101019.20
2023-01-09T13:00:35.739Z,101024.33
2023-01-09T13:03:24.209Z,101027.41
2023-01-09T13:05:53.346Z,101032.56
2023-01-09T13:08:32.086Z,101037.01
2023-01-09T13:11:20.448Z,101034.90
2023-01-09T13:13:50.925Z,101034.86
2023-01-09T13:16:21.017Z,101031.23
2023-01-09T13:19:12.747Z,101031.05
2023-01-09T13:21:39.781Z,101030.16
2023-01-09T13:24:06.765Z,101032.70
2023-01-09T13:26:40.238Z,101038.36
2023-01-09T13:29:06.944Z,101039.02
2023-01-09T13:32:11.648Z,101038.31
2023-01-09T13:34:38.908Z,101039.50
2023-01-09T13:37:05.881Z,101039.09
2023-01-09T13:39:35.235Z,101035.41
2023-01-09T13:42:25.541Z,101033.10
2023-01-09T13:44:56.822Z,101035.29
2023-01-09T13:47:29.691Z,101038.02
2023-01-09T13:50:06.324Z,101038.00
2023-01-09T13:52:37.009Z,101034.38
2023-01-09T13:55:16.618Z,101028.64
2023-01-09T13:58:05.772Z,101028.42
2023-01-09T14:00:35.815Z,101027.69
2023-01-09T14:03:18.072Z,101029.05
2023-01-09T14:05:45.070Z,101027.15
2023-01-09T14:08:26.051Z,101028.69
2023-01-09T14:11:01.141Z,101029.17
2023-01-09T14:13:33.038Z,101025.35
2023-01-09T14:16:20.826Z,101027.39
2023-01-09T14:18:49.290Z,101026.30
2023-01-09T14:21:16.556Z,101028.68
2023-01-09T14:24:02.139Z,101031.02
2023-01-09T14:26:56.752Z,101033.21
2023-01-09T14:29:41.426Z,101040.23
2023-01-09T14:32:23.736Z,101039.66
2023-01-09T14:35:18.409Z,101038.94
2023-01-09T14:37:49.482Z,101037.70
2023-01-09T14:40:21.760Z,101037.16
2023-01-09T14:42:52.021Z,101036.65
2023-01-09T14:45:22.209Z,101025.76
2023-01-09T14:48:00.876Z,101025.37
2023-01-09T14:50:45.159Z,101031.35
2023-01-09T14:53:29.367Z,101027.33
2023-01-09T14:55:58.158Z,101024.39
2023-01-09T14:58:32.811Z,101024.02
2023-01-09T15:01:03.030Z,101021.40
2023-01-09T15:03:39.757Z,101020.69
2023-01-09T15:06:07.066Z,101018.26
2023-01-09T15:08:33.958Z,101016.67
2023-01-09T15:11:00.932Z,101015.83
2023-01-09T15:13:35.568Z,101014.25
2023-01-09T15:16:06.741Z,101018.20
2023-01-09T15:18:39.990Z,101017.34
2023-01-09T15:21:06.831Z,101016.97
2023-01-09T15:23:33.771Z,101015.77
2023-01-09T15:26:21.710Z,101012.14
2023-01-09T15:28:48.676Z,101015.58
2023-01-09T15:31:19.335Z,101016.61
2023-01-09T15:33:46.757Z,101022.65
2023-01-09T15:36:24.935Z,101016.09
2023-01-09T15:38:52.200Z,101013.31
2023-01-09T15:41:48.662Z,101015.91
2023-01-09T15:44:21.666Z,101019.73
2023-01-09T15:46:50.217Z,101021.13
2023-01-09T15:49:17.293Z,101018.23
2023-01-09T15:51:45.275Z,101018.59
2023-01-09T15:54:16.430Z,101013.77
2023-01-09T15:56:45.714Z,101012.75
2023-01-09T15:59:22.875Z,101012.60
2023-01-09T16:02:16.175Z,101011.60
2023-01-09T16:04:43.090Z,101008.50
2023-01-09T16:07:15.415Z,101005.04
2023-01-09T16:09:44.537Z,101002.46
2023-01-09T16:12:19.200Z,101002.11
2023-01-09T16:14:50.790Z,101005.39
2023-01-09T16:17:18.365Z,101006.27
2023-01-09T16:19:52.334Z,101004.20
2023-01-09T16:22:23.486Z,101007.63
2023-01-09T16:24:54.404Z,101007.26
2023-01-09T16:27:24.833Z,101011.90
2023-01-09T16:29:58.114Z,101013.95
2023-01-09T16:40:25.613Z,101017.45
2023-01-09T16:43:05.572Z,101016.80
2023-01-09T16:45:33.360Z,101013.85
2023-01-09T16:48:01.703Z,101020.05
2023-01-09T16:50:28.753Z,101019.50
2023-01-09T16:52:56.565Z,101018.45
2023-01-09T16:55:23.698Z,101018.10
2023-01-09T16:57:50.811Z,101016.70
2023-01-09T17:00:20.001Z,101014.30
2023-01-09T17:02:47.152Z,101019.65
2023-01-09T17:05:14.528Z,101021.04
2023-01-09T17:07:41.559Z,101016.00
2023-01-09T17:10:16.096Z,101013.38
2023-01-09T17:12:43.031Z,101010.94
2023-01-09T17:15:10.892Z,101016.27
2023-01-09T17:17:38.636Z,101015.76
2023-01-09T17:20:15.230Z,101017.81
2023-01-09T17:22:42.282Z,101019.36
2023-01-09T17:25:32.443Z,101017.63
2023-01-09T17:28:19.417Z,101017.42
2023-01-09T17:30:46.440Z,101013.77
2023-01-09T17:33:17.458Z,101016.17
2023-01-09T17:35:44.741Z,101024.80
2023-01-09T17:38:15.557Z,101022.02
2023-01-09T17:40:44.157Z,101023.73
2023-01-09T17:43:11.299Z,101026.68
2023-01-09T17:45:41.184Z,101029.98
2023-01-09T17:48:17.251Z,101032.56
2023-01-09T17:50:44.983Z,101027.76
2023-01-09T17:53:11.930Z,101027.77
2023-01-09T17:55:39.423Z,101028.16
2023-01-09T17:58:06.266Z,101024.20
2023-01-09T18:00:36.808Z,101026.62
2023-01-09T18:03:04.824Z,101029.25
2023-01-09T18:05:31.842Z,101024.14
2023-01-09T18:07:58.913Z,101019.67
2023-01-09T18:10:27.423Z,101016.42
2023-01-09T18:12:55.121Z,101016.83
2023-01-09T18:15:24.543Z,101009.47
2023-01-09T18:17:52.125Z,101009.70
2023-01-09T18:20:19.545Z,101005.09
2023-01-09T18:22:47.801Z,100999.11
2023-01-09T18:25:15.276Z,100993.32
2023-01-09T18:27:42.236Z,100988.86
2023-01-09T18:30:10.592Z,100993.23
2023-01-09T18:32:39.114Z,100992.27
2023-01-09T18:35:06.048Z,100989.88
2023-01-09T18:37:33.120Z,100997.31
2023-01-09T18:40:00.228Z,101000.11
2023-01-09T18:42:27.369Z,100994.77
2023-01-09T18:44:54.258Z,100992.89
2023-01-09T18:47:25.182Z,100992.21
2023-01-09T18:49:53.673Z,100995.84
2023-01-09T18:52:21.703Z,100996.02
2023-01-09T18:54:48.656Z,100994.63
2023-01-09T18:57:15.588Z,100996.71
2023-01-09T18:59:42.496Z,100997.05
2023-01-09T19:02:20.028Z,100996.53
2023-01-09T19:04:49.550Z,100996.02
2023-01-09T19:07:16.675Z,100997.20
2023-01-09T19:09:44.365Z,100991.35
2023-01-09T19:12:11.511Z,100986.53
2023-01-09T19:14:38.580Z,100988.62
2023-01-09T19:17:05.482Z,100994.30
2023-01-09T19:19:33.874Z,100997.44
2023-01-09T19:22:00.912Z,100996.25
2023-01-09T19:24:28.067Z,101002.48
2023-01-09T19:26:55.013Z,101004.55
2023-01-09T19:29:21.890Z,101007.14
2023-01-09T19:31:49.129Z,101001.95
2023-01-09T19:34:17.732Z,101000.58
2023-01-09T19:36:45.046Z,101000.05
2023-01-09T19:39:11.915Z,101004.86
2023-01-09T19:41:38.834Z,101005.04
2023-01-09T19:44:06.001Z,101009.86
2023-01-09T19:46:36.458Z,101011.91
2023-01-09T19:49:06.434Z,101011.72
2023-01-09T19:51:33.582Z,101010.66
2023-01-09T19:56:35.718Z,101020.27
2023-01-09T19:59:03.383Z,101021.65
2023-01-09T20:01:35.160Z,101019.40
2023-01-09T20:04:05.075Z,101021.13
2023-01-09T20:06:32.143Z,101019.04
2023-01-09T20:09:00.815Z,101023.34
2023-01-09T20:11:29.302Z,101026.98
2023-01-09T20:13:57.036Z,101027.69
2023-01-09T20:16:28.728Z,101024.23
2023-01-09T20:18:57.862Z,101019.60
2023-01-09T20:21:26.529Z,101021.70
2023-01-09T20:23:55.867Z,101027.06
2023-01-09T20:26:23.640Z,101032.27
2023-01-09T20:28:50.631Z,101033.82
2023-01-09T20:31:19.184Z,101032.11
2023-01-09T20:33:48.820Z,101043.31
2023-01-09T20:36:15.725Z,101048.15
2023-01-09T20:38:43.676Z,101049.02
2023-01-09T20:41:22.849Z,101050.73
2023-01-09T20:44:00.977Z,101050.40
2023-01-09T20:46:29.992Z,101056.09
2023-01-09T20:48:58.556Z,101057.29
2023-01-09T20:51:26.115Z,101065.75
2023-01-09T20:53:56.020Z,101066.61
2023-01-09T20:56:23.985Z,101069.02
2023-01-09T20:58:51.335Z,101069.55
2023-01-09T21:01:18.522Z,101068.88
2023-01-09T21:03:45.426Z,101066.48
2023-01-09T21:06:14.091Z,101070.97
2023-01-09T21:08:43.068Z,101078.40
2023-01-09T21:11:10.378Z,101081.34
2023-01-09T21:13:37.735Z,101075.98
2023-01-09T21:16:08.903Z,101072.36
2023-01-09T21:18:36.951Z,101068.05
2023-01-09T21:21:09.156Z,101073.40
2023-01-09T21:23:36.237Z,101077.88
2023-01-09T21:26:11.791Z,101081.65
2023-01-09T21:28:49.235Z,101076.63
2023-01-09T21:31:17.908Z,101079.39
2023-01-09T21:33:45.298Z,101079.04
2023-01-09T21:36:12.389Z,101072.85
2023-01-09T21:38:39.467Z,101069.23
2023-01-09T21:41:25.638Z,101063.73
2023-01-09T21:44:11.247Z,101057.52
2023-01-09T21:46:53.638Z,101056.65
2023-01-09T21:49:20.684Z,101049.95
2023-01-09T21:51:47.725Z,101043.95
2023-01-09T21:54:14.812Z,101040.70
2023-01-09T21:56:41.651Z,101040.89
2023-01-09T21:59:08.876Z,101042.98
2023-01-09T22:01:36.147Z,101045.94
2023-01-09T22:04:03.096Z,101040.95
2023-01-09T22:06:30.338Z,101039.62
2023-01-09T22:08:57.265Z,101045.02
2023-01-09T22:11:24.207Z,101050.59
2023-01-09T22:13:51.370Z,101053.88
2023-01-09T22:16:18.456Z,101052.54
2023-01-09T22:18:45.662Z,101044.63
2023-01-09T22:21:12.754Z,101042.43
2023-01-09T22:23:39.741Z,101042.48
2023-01-09T22:26:10.694Z,101032.31
2023-01-09T22:28:37.696Z,101033.59
2023-01-09T22:31:09.099Z,101032.27
2023-01-09T22:33:36.958Z,101033.34
2023-01-09T22:36:08.340Z,101039.27
2023-01-09T22:38:35.557Z,101036.38
2023-01-09T22:41:03.120Z,101038.81
2023-01-09T22:43:30.365Z,101041.09
2023-01-09T22:46:01.557Z,101040.11
2023-01-09T22:48:31.697Z,101042.74
2023-01-09T22:51:00.714Z,101044.14
2023-01-09T22:53:28.692Z,101044.54
2023-01-09T22:55:59.976Z,101044.76
2023-01-09T22:58:27.717Z,101050.97
2023-01-09T23:00:54.892Z,101045.13
2023-01-09T23:03:21.944Z,101044.95
2023-01-09T23:05:48.892Z,101045.14
2023-01-09T23:08:16.000Z,101043.41
2023-01-09T23:10:43.354Z,101043.27
2023-01-09T23:13:11.221Z,101041.76
2023-01-09T23:15:38.372Z,101038.33
2023-01-09T23:18:06.503Z,101038.00
2023-01-09T23:20:34.028Z,101047.13
2023-01-09T23:23:00.949Z,101058.17
2023-01-09T23:25:28.404Z,101057.48
2023-01-09T23:27:55.294Z,101056.46
2023-01-09T23:30:22.293Z,101058.05
2023-01-09T23:32:49.379Z,101058.23
2023-01-09T23:35:16.408Z,101060.84
2023-01-09T23:37:44.009Z,101060.66
2023-01-09T23:40:11.969Z,101061.20
2023-01-09T23:42:57.711Z,101059.50
2023-01-09T23:45:24.647Z,101062.96
2023-01-09T23:47:51.818Z,101067.47
2023-01-09T23:50:18.903Z,101068.02
2023-01-09T23:52:45.931Z,101072.87
2023-01-09T23:55:12.941Z,101072.73
2023-01-09T23:57:40.147Z,101074.13
